createdAt,value
2023-04-12T00:01:10.195Z,81.00
2023-04-12T00:03:39.423Z,81.20
2023-04-12T00:06:07.508Z,81.20
2023-04-12T00:08:35.936Z,81.40
2023-04-12T00:11:03.661Z,81.50
2023-04-12T00:13:32.610Z,81.50
2023-04-12T00:16:01.086Z,81.50
2023-04-12T00:18:28.016Z,81.40
2023-04-12T00:20:58.104Z,81.50
2023-04-12T00:23:25.008Z,81.60
2023-04-12T00:25:54.818Z,81.70
2023-04-12T00:28:21.772Z,81.80
2023-04-12T00:30:48.653Z,81.90
2023-04-12T00:33:15.533Z,82.40
2023-04-12T00:35:43.051Z,82.50
2023-04-12T00:38:11.082Z,82.60
2023-04-12T00:40:42.676Z,82.20
2023-04-12T00:43:15.367Z,82.30
2023-04-12T00:45:42.891Z,82.30
2023-04-12T00:48:09.997Z,82.20
2023-04-12T00:50:37.011Z,82.10
2023-04-12T00:53:04.707Z,82.00
2023-04-12T00:55:31.700Z,81.90
2023-04-12T00:57:59.640Z,81.60
2023-04-12T01:00:26.494Z,81.60
2023-04-12T01:02:53.783Z,81.60
2023-04-12T01:05:23.641Z,81.50
2023-04-12T01:08:05.433Z,81.40
2023-04-12T01:10:57.919Z,81.30
2023-04-12T01:13:25.548Z,81.20
2023-04-12T01:16:13.874Z,81.20
2023-04-12T01:18:45.940Z,81.30
2023-04-12T01:21:23.640Z,81.10
2023-04-12T01:24:20.676Z,81.00
2023-04-12T01:26:49.502Z,80.90
2023-04-12T01:29:21.916Z,80.90
2023-04-12T01:31:55.161Z,80.80
2023-04-12T01:34:24.469Z,80.90
2023-04-12T01:36:53.072Z,80.70
2023-04-12T01:39:20.945Z,80.70
2023-04-12T01:41:49.179Z,80.90
2023-04-12T01:44:17.379Z,80.70
2023-04-12T01:46:48.615Z,80.80
2023-04-12T01:49:19.096Z,80.70
2023-04-12T01:52:10.856Z,80.70
2023-04-12T01:54:41.778Z,80.50
2023-04-12T01:57:09.526Z,80.50
2023-04-12T01:59:40.920Z,80.40
2023-04-12T02:02:12.249Z,80.40
2023-04-12T02:04:40.159Z,80.20
2023-04-12T02:07:07.178Z,80.30
2023-04-12T02:09:40.581Z,80.30
2023-04-12T02:12:09.190Z,80.40
2023-04-12T02:14:37.293Z,80.50
2023-04-12T02:17:06.147Z,80.40
2023-04-12T02:19:33.317Z,80.30
2023-04-12T02:22:01.404Z,80.20
2023-04-12T02:24:29.356Z,80.10
2023-04-12T02:26:57.916Z,80.10
2023-04-12T02:29:24.829Z,80.20
2023-04-12T02:31:56.162Z,80.10
2023-04-12T02:34:23.216Z,80.10
2023-04-12T02:36:50.582Z,80.20
2023-04-12T02:39:18.799Z,80.20
2023-04-12T02:41:50.437Z,80.20
2023-04-12T02:44:17.332Z,80.20
2023-04-12T02:46:44.452Z,80.10
2023-04-12T02:49:11.681Z,80.10
2023-04-12T02:51:39.292Z,80.00
2023-04-12T02:54:07.190Z,80.00
2023-04-12T02:56:37.048Z,79.90
2023-04-12T02:59:07.009Z,79.80
2023-04-12T03:01:34.021Z,79.80
2023-04-12T03:04:02.225Z,79.80
2023-04-12T03:06:30.343Z,79.80
2023-04-12T03:08:58.188Z,79.80
2023-04-12T03:11:25.114Z,80.40
2023-04-12T03:13:52.484Z,79.80
2023-04-12T03:16:25.619Z,79.80
2023-04-12T03:18:54.579Z,79.80
2023-04-12T03:21:21.602Z,79.70
2023-04-12T03:23:48.431Z,79.70
2023-04-12T03:26:15.497Z,79.60
2023-04-12T03:28:43.016Z,79.60
2023-04-12T03:31:12.642Z,79.60
2023-04-12T03:33:39.722Z,79.60
2023-04-12T03:36:07.553Z,79.60
2023-04-12T03:38:34.478Z,79.60
2023-04-12T03:41:03.066Z,79.60
2023-04-12T03:43:35.971Z,79.60
2023-04-12T03:46:04.293Z,79.70
2023-04-12T03:48:31.560Z,79.70
2023-04-12T03:50:59.998Z,79.60
2023-04-12T03:53:31.750Z,79.60
2023-04-12T03:55:58.702Z,79.70
2023-04-12T03:58:26.104Z,79.60
2023-04-12T04:00:53.267Z,79.60
2023-04-12T04:03:20.544Z,79.70
2023-04-12T04:05:48.327Z,79.60
2023-04-12T04:08:15.459Z,79.60
2023-04-12T04:10:42.896Z,79.00
2023-04-12T04:13:09.838Z,79.60
2023-04-12T04:15:37.192Z,79.50
2023-04-12T04:18:04.243Z,80.30
2023-04-12T04:20:32.024Z,79.50
2023-04-12T04:22:59.703Z,79.20
2023-04-12T04:25:33.684Z,79.60
2023-04-12T04:28:03.038Z,79.60
2023-04-12T04:30:29.986Z,79.70
2023-04-12T04:32:57.315Z,79.60
2023-04-12T04:35:24.506Z,79.70
2023-04-12T04:37:53.073Z,79.80
2023-04-12T04:40:21.697Z,79.80
2023-04-12T04:42:54.963Z,80.00
2023-04-12T04:45:26.683Z,80.10
2023-04-12T04:47:54.561Z,80.00
2023-04-12T04:50:23.311Z,80.00
2023-04-12T04:52:53.421Z,80.20
2023-04-12T04:55:24.959Z,80.30
2023-04-12T04:57:52.214Z,80.50
2023-04-12T05:00:19.552Z,80.50
2023-04-12T05:02:47.476Z,80.60
2023-04-12T05:05:14.515Z,80.50
2023-04-12T05:07:41.574Z,80.50
2023-04-12T05:10:09.332Z,80.50
2023-04-12T05:12:37.014Z,80.50
2023-04-12T05:15:11.728Z,80.50
2023-04-12T05:17:39.461Z,80.70
2023-04-12T05:20:08.505Z,80.70
2023-04-12T05:22:36.105Z,81.30
2023-04-12T05:25:04.013Z,80.90
2023-04-12T05:27:31.319Z,80.90
2023-04-12T05:29:58.249Z,80.90
2023-04-12T05:32:26.119Z,80.90
2023-04-12T05:34:53.114Z,81.00
2023-04-12T05:37:21.254Z,81.10
2023-04-12T05:39:48.380Z,81.20
2023-04-12T05:42:15.279Z,81.20
2023-04-12T05:44:44.961Z,81.20
2023-04-12T05:47:12.233Z,81.30
2023-04-12T05:49:39.166Z,81.30
2023-04-12T05:52:06.632Z,81.30
2023-04-12T05:54:33.493Z,81.30
2023-04-12T05:57:00.916Z,81.40
2023-04-12T05:59:27.898Z,81.50
2023-04-12T06:01:56.227Z,81.40
2023-04-12T06:04:25.155Z,81.50
2023-04-12T06:06:56.921Z,81.40
2023-04-12T06:09:23.840Z,81.60
2023-04-12T06:11:52.277Z,81.60
2023-04-12T06:14:19.335Z,81.90
2023-04-12T06:16:46.146Z,82.10
2023-04-12T06:19:13.089Z,82.10
2023-04-12T06:21:39.996Z,81.90
2023-04-12T06:24:07.420Z,82.00
2023-04-12T06:26:39.694Z,79.80
2023-04-12T06:29:07.183Z,74.00
2023-04-12T06:31:34.214Z,74.30
2023-04-12T06:34:01.368Z,74.80
2023-04-12T06:36:28.255Z,74.00
2023-04-12T06:38:55.688Z,73.10
2023-04-12T06:41:22.802Z,73.30
2023-04-12T06:43:49.844Z,73.50
2023-04-12T06:46:18.833Z,73.50
2023-04-12T06:48:45.783Z,74.00
2023-04-12T06:51:12.911Z,73.70
2023-04-12T06:53:41.336Z,74.70
2023-04-12T06:56:08.488Z,74.20
2023-04-12T06:58:35.447Z,75.00
2023-04-12T07:01:10.341Z,74.60
2023-04-12T07:03:37.516Z,74.30
2023-04-12T07:06:17.286Z,74.90
2023-04-12T07:08:51.232Z,74.90
2023-04-12T07:11:21.424Z,74.10
2023-04-12T07:13:49.885Z,74.90
2023-04-12T07:16:17.904Z,74.90
2023-04-12T07:18:44.893Z,74.50
2023-04-12T07:21:14.524Z,74.30
2023-04-12T07:23:41.644Z,75.00
2023-04-12T07:26:09.782Z,75.00
2023-04-12T07:28:39.154Z,75.50
2023-04-12T07:31:09.291Z,75.40
2023-04-12T07:33:39.386Z,75.00
2023-04-12T07:36:08.104Z,75.40
2023-04-12T07:38:35.094Z,75.50
2023-04-12T07:41:02.104Z,75.50
2023-04-12T07:43:30.319Z,75.40
2023-04-12T07:45:59.820Z,75.30
2023-04-12T07:48:26.825Z,75.40
2023-04-12T07:50:56.110Z,76.00
2023-04-12T07:53:26.756Z,75.40
2023-04-12T07:55:57.097Z,75.30
2023-04-12T07:58:27.844Z,75.20
2023-04-12T08:00:54.774Z,75.40
2023-04-12T08:03:22.132Z,75.70
2023-04-12T08:05:54.648Z,75.40
2023-04-12T08:08:23.592Z,75.30
2023-04-12T08:10:52.491Z,75.00
2023-04-12T08:13:20.057Z,75.00
2023-04-12T08:15:47.888Z,75.20
2023-04-12T08:18:16.195Z,75.30
2023-04-12T08:20:44.530Z,75.60
2023-04-12T08:23:12.436Z,75.70
2023-04-12T08:25:41.179Z,75.70
2023-04-12T08:28:10.611Z,75.00
2023-04-12T08:30:37.542Z,75.20
2023-04-12T08:33:04.837Z,75.30
2023-04-12T08:35:32.298Z,75.20
2023-04-12T08:38:00.505Z,75.40
2023-04-12T08:40:27.986Z,75.00
2023-04-12T08:42:57.052Z,75.30
2023-04-12T08:45:29.241Z,75.20
2023-04-12T08:47:56.569Z,75.30
2023-04-12T08:50:26.542Z,75.30
2023-04-12T08:52:54.293Z,75.30
2023-04-12T08:55:28.805Z,75.10
2023-04-12T08:57:56.877Z,75.10
2023-04-12T09:00:24.587Z,75.00
2023-04-12T09:02:51.859Z,75.30
2023-04-12T09:05:18.999Z,75.30
2023-04-12T09:07:45.945Z,75.30
2023-04-12T09:10:37.293Z,75.20
2023-04-12T09:13:07.361Z,75.10
2023-04-12T09:15:35.408Z,75.00
2023-04-12T09:18:08.578Z,74.90
2023-04-12T09:20:37.080Z,75.00
2023-04-12T09:23:26.250Z,74.80
2023-04-12T09:25:53.616Z,74.70
2023-04-12T09:28:28.489Z,74.70
2023-04-12T09:30:56.884Z,74.70
2023-04-12T09:33:33.143Z,74.70
2023-04-12T09:36:09.451Z,74.50
2023-04-12T09:38:39.554Z,74.50
2023-04-12T09:41:21.485Z,74.40
2023-04-12T09:43:52.527Z,74.50
2023-04-12T09:46:21.141Z,74.30
2023-04-12T09:48:52.840Z,74.50
2023-04-12T09:51:31.385Z,74.30
2023-04-12T09:54:01.477Z,74.30
2023-04-12T09:56:34.251Z,74.30
2023-04-12T09:59:03.442Z,74.30
2023-04-12T10:01:36.990Z,74.30
2023-04-12T10:04:06.509Z,74.10
2023-04-12T10:06:34.817Z,74.20
2023-04-12T10:09:07.032Z,74.50
2023-04-12T10:11:34.477Z,74.60
2023-04-12T10:14:03.374Z,74.70
2023-04-12T10:16:31.155Z,74.70
2023-04-12T10:19:02.353Z,74.60
2023-04-12T10:21:29.670Z,74.60
2023-04-12T10:23:58.028Z,74.70
2023-04-12T10:26:26.980Z,75.00
2023-04-12T10:29:23.722Z,74.90
2023-04-12T10:31:51.257Z,74.70
2023-04-12T10:34:19.331Z,74.50
2023-04-12T10:36:58.420Z,74.50
2023-04-12T10:39:44.379Z,74.40
2023-04-12T10:42:27.629Z,74.20
2023-04-12T10:44:59.637Z,74.10
2023-04-12T10:47:50.123Z,74.10
2023-04-12T10:50:35.484Z,74.00
2023-04-12T10:53:15.600Z,73.90
2023-04-12T10:55:44.714Z,74.00
2023-04-12T10:58:32.151Z,74.00
2023-04-12T11:01:00.280Z,73.90
2023-04-12T11:03:28.977Z,73.90
2023-04-12T11:06:09.186Z,73.90
2023-04-12T11:08:41.531Z,73.90
2023-04-12T11:11:20.956Z,73.90
2023-04-12T11:13:47.973Z,74.00
2023-04-12T11:16:15.445Z,73.90
2023-04-12T11:18:46.497Z,73.90
2023-04-12T11:21:14.039Z,73.90
2023-04-12T11:23:43.687Z,74.00
2023-04-12T11:26:11.120Z,74.00
2023-04-12T11:28:38.181Z,74.70
2023-04-12T11:31:06.698Z,74.50
2023-04-12T11:33:40.402Z,74.50
2023-04-12T11:36:14.870Z,74.30
2023-04-12T11:38:42.390Z,74.20
2023-04-12T11:41:10.388Z,74.20
2023-04-12T11:43:39.051Z,74.10
2023-04-12T11:46:06.191Z,74.00
2023-04-12T11:48:33.898Z,74.10
2023-04-12T11:51:11.153Z,74.00
2023-04-12T11:53:39.151Z,74.10
2023-04-12T11:56:06.478Z,74.10
2023-04-12T11:58:36.045Z,74.20
2023-04-12T12:01:04.916Z,74.20
2023-04-12T12:03:32.329Z,74.30
2023-04-12T12:05:59.809Z,74.40
2023-04-12T12:08:28.353Z,74.40
2023-04-12T12:11:06.475Z,75.20
2023-04-12T12:13:44.913Z,74.70
2023-04-12T12:16:12.862Z,75.30
2023-04-12T12:18:41.118Z,74.80
2023-04-12T12:21:16.151Z,74.90
2023-04-12T12:23:44.077Z,74.80
2023-04-12T12:26:19.510Z,74.90
2023-04-12T12:28:53.838Z,75.00
2023-04-12T12:31:26.682Z,75.10
2023-04-12T12:33:58.816Z,75.30
2023-04-12T12:36:34.801Z,75.40
2023-04-12T12:39:12.050Z,75.60
2023-04-12T12:41:40.358Z,75.70
2023-04-12T12:44:08.482Z,75.80
2023-04-12T12:49:06.164Z,75.90
2023-04-12T12:51:33.280Z,75.90
2023-04-12T12:54:01.066Z,75.80
2023-04-12T12:56:28.067Z,75.80
2023-04-12T12:58:55.089Z,75.80
2023-04-12T13:01:22.136Z,75.70
2023-04-12T13:03:49.175Z,75.60
2023-04-12T13:06:17.279Z,75.70
2023-04-12T13:08:44.155Z,75.80
2023-04-12T13:11:12.624Z,75.80
2023-04-12T13:13:39.522Z,75.80
2023-04-12T13:16:06.939Z,75.90
2023-04-12T13:18:33.887Z,75.90
2023-04-12T13:21:00.960Z,76.00
2023-04-12T13:23:27.879Z,76.00
2023-04-12T13:25:55.295Z,76.00
2023-04-12T13:28:24.965Z,76.00
2023-04-12T13:30:51.970Z,76.10
2023-04-12T13:33:21.890Z,76.10
2023-04-12T13:35:49.436Z,76.10
2023-04-12T13:38:16.434Z,76.20
2023-04-12T13:40:43.868Z,76.10
2023-04-12T13:43:11.807Z,76.10
2023-04-12T13:45:39.166Z,76.20
2023-04-12T13:48:06.504Z,76.10
2023-04-12T13:50:33.465Z,76.10
2023-04-12T13:53:01.645Z,76.20
2023-04-12T13:55:28.593Z,76.20
2023-04-12T13:57:57.715Z,76.10
2023-04-12T14:00:24.713Z,76.20
2023-04-12T14:02:51.765Z,76.20
2023-04-12T14:05:18.903Z,76.20
2023-04-12T14:07:47.947Z,76.30
2023-04-12T14:10:14.988Z,76.20
2023-04-12T14:12:41.953Z,76.20
2023-04-12T14:15:09.594Z,76.30
2023-04-12T14:17:36.677Z,76.30
2023-04-12T14:20:07.687Z,76.30
2023-04-12T14:22:34.677Z,76.30
2023-04-12T14:25:01.773Z,76.40
2023-04-12T14:27:28.750Z,76.40
2023-04-12T14:29:56.773Z,76.50
2023-04-12T14:32:24.339Z,76.50
2023-04-12T14:34:52.455Z,76.50
2023-04-12T14:37:19.463Z,76.50
2023-04-12T14:39:46.373Z,77.40
2023-04-12T14:42:13.359Z,79.20
2023-04-12T14:44:44.180Z,80.10
2023-04-12T14:47:11.110Z,80.10
2023-04-12T14:49:38.466Z,76.50
2023-04-12T14:52:06.990Z,73.70
2023-04-12T14:54:35.369Z,71.80
2023-04-12T14:57:02.317Z,70.40
2023-04-12T14:59:29.569Z,69.30
2023-04-12T15:01:58.269Z,68.70
2023-04-12T15:04:26.740Z,67.90
2023-04-12T15:06:53.781Z,67.20
2023-04-12T15:09:26.936Z,66.70
2023-04-12T15:12:01.040Z,66.10
2023-04-12T15:14:28.900Z,65.60
2023-04-12T15:16:57.931Z,65.50
2023-04-12T15:19:24.910Z,65.10
2023-04-12T15:21:53.158Z,64.90
2023-04-12T15:24:21.158Z,64.70
2023-04-12T15:26:50.953Z,65.00
2023-04-12T15:29:19.387Z,64.60
2023-04-12T15:31:48.126Z,64.40
2023-04-12T15:34:15.454Z,64.10
2023-04-12T15:36:43.814Z,63.80
2023-04-12T15:39:12.840Z,63.80
2023-04-12T15:41:43.734Z,63.70
2023-04-12T15:44:14.658Z,63.50
2023-04-12T15:46:42.597Z,63.30
2023-04-12T15:49:10.983Z,63.40
2023-04-12T15:51:39.089Z,63.30
2023-04-12T15:54:06.576Z,63.20
2023-04-12T15:56:34.791Z,63.10
2023-04-12T15:59:02.625Z,62.90
2023-04-12T16:04:11.529Z,62.50
2023-04-12T16:06:38.869Z,62.30
2023-04-12T16:09:06.073Z,62.30
2023-04-12T16:11:34.171Z,62.00
2023-04-12T16:14:01.341Z,62.00
2023-04-12T16:16:28.474Z,61.80
2023-04-12T16:18:55.872Z,61.70
2023-04-12T16:21:27.381Z,61.70
2023-04-12T16:23:54.516Z,61.50
2023-04-12T16:26:22.601Z,61.40
2023-04-12T16:28:51.929Z,61.20
2023-04-12T16:31:21.110Z,61.10
2023-04-12T16:33:52.420Z,61.10
2023-04-12T16:36:23.913Z,61.00
2023-04-12T16:38:59.604Z,60.80
2023-04-12T16:41:26.769Z,60.80
2023-04-12T16:43:55.397Z,60.70
2023-04-12T16:46:23.001Z,60.40
2023-04-12T16:48:50.053Z,60.40
2023-04-12T16:51:17.679Z,60.30
2023-04-12T16:53:46.564Z,60.30
2023-04-12T16:56:14.352Z,60.10
2023-04-12T16:58:41.738Z,60.00
2023-04-12T17:01:09.787Z,59.90
2023-04-12T17:03:37.984Z,59.80
2023-04-12T17:06:05.794Z,59.80
2023-04-12T17:08:32.973Z,59.70
2023-04-12T17:10:59.996Z,59.60
2023-04-12T17:13:26.981Z,59.50
2023-04-12T17:15:55.011Z,59.40
2023-04-12T17:18:22.148Z,59.40
2023-04-12T17:21:11.261Z,59.20
2023-04-12T17:23:38.857Z,59.20
2023-04-12T17:26:08.788Z,59.00
2023-04-12T17:28:40.905Z,59.00
2023-04-12T17:31:13.315Z,58.90
2023-04-12T17:33:41.667Z,58.80
2023-04-12T17:36:11.363Z,58.70
2023-04-12T17:38:38.824Z,58.60
2023-04-12T17:41:07.214Z,58.50
2023-04-12T17:43:35.636Z,58.40
2023-04-12T17:46:04.524Z,58.40
2023-04-12T17:48:33.029Z,58.20
2023-04-12T17:51:02.577Z,58.10
2023-04-12T17:53:29.944Z,58.00
2023-04-12T17:55:57.228Z,58.40
2023-04-12T17:58:25.103Z,58.00
2023-04-12T18:00:52.199Z,57.80
2023-04-12T18:03:20.783Z,57.70
2023-04-12T18:05:47.908Z,57.50
2023-04-12T18:08:16.706Z,57.50
2023-04-12T18:10:47.219Z,57.50
2023-04-12T18:13:14.233Z,57.50
2023-04-12T18:15:41.330Z,57.30
2023-04-12T18:18:08.339Z,57.30
2023-04-12T18:20:36.320Z,57.30
2023-04-12T18:23:03.538Z,57.20
2023-04-12T18:25:30.735Z,57.00
2023-04-12T18:27:58.248Z,57.90
2023-04-12T18:30:25.231Z,61.00
2023-04-12T18:32:52.273Z,59.40
2023-04-12T18:35:19.837Z,59.90
2023-04-12T18:37:47.015Z,60.90
2023-04-12T18:40:14.341Z,61.80
2023-04-12T18:42:41.469Z,62.20
2023-04-12T18:45:09.640Z,62.70
2023-04-12T18:47:38.999Z,63.40
2023-04-12T18:50:07.103Z,64.60
2023-04-12T18:52:34.780Z,64.60
2023-04-12T18:55:01.653Z,65.40
2023-04-12T18:57:29.223Z,65.40
2023-04-12T18:59:56.557Z,65.60
2023-04-12T19:02:26.212Z,66.10
2023-04-12T19:04:53.170Z,66.70
2023-04-12T19:07:20.096Z,66.50
2023-04-12T19:09:47.256Z,67.30
2023-04-12T19:12:14.236Z,66.90
2023-04-12T19:14:41.776Z,67.20
2023-04-12T19:17:09.565Z,67.20
2023-04-12T19:19:36.677Z,67.40
2023-04-12T19:22:03.662Z,67.70
2023-04-12T19:24:30.889Z,67.90
2023-04-12T19:26:57.756Z,68.10
2023-04-12T19:29:30.717Z,68.20
2023-04-12T19:31:58.237Z,68.50
2023-04-12T19:34:27.550Z,69.20
2023-04-12T19:36:54.539Z,69.00
2023-04-12T19:39:22.813Z,69.50
2023-04-12T19:41:49.926Z,69.40
2023-04-12T19:44:17.105Z,70.00
2023-04-12T19:46:44.297Z,68.40
2023-04-12T19:49:11.326Z,65.50
2023-04-12T19:51:40.052Z,63.80
2023-04-12T19:54:11.009Z,62.80
2023-04-12T19:56:37.999Z,62.00
2023-04-12T19:59:10.910Z,61.40
2023-04-12T20:01:58.408Z,60.90
2023-04-12T20:04:26.604Z,60.50
2023-04-12T21:41:47.360Z,58.60
2023-04-12T21:44:14.315Z,59.50
2023-04-12T21:46:41.166Z,60.80
2023-04-12T21:49:08.065Z,62.10
2023-04-12T21:51:34.968Z,61.70
2023-04-12T21:54:01.908Z,62.30
2023-04-12T21:56:28.910Z,63.00
2023-04-12T21:58:59.891Z,63.50
2023-04-12T22:01:27.612Z,63.10
2023-04-12T22:03:55.129Z,63.60
2023-04-12T22:06:22.366Z,64.00
2023-04-12T22:08:50.118Z,64.70
2023-04-12T22:11:16.966Z,64.60
2023-04-12T22:13:46.141Z,64.80
2023-04-12T22:16:13.981Z,65.20
2023-04-12T22:18:41.304Z,66.30
2023-04-12T22:21:08.885Z,66.20
2023-04-12T22:23:38.862Z,67.00
2023-04-12T22:26:09.994Z,66.70
2023-04-12T22:28:38.174Z,66.90
2023-04-12T22:31:08.243Z,67.10
2023-04-12T22:33:36.942Z,67.40
2023-04-12T22:36:06.238Z,67.10
2023-04-12T22:38:37.304Z,68.00
2023-04-12T22:41:04.910Z,67.90
2023-04-12T22:43:38.091Z,67.50
2023-04-12T22:46:06.080Z,68.10
2023-04-12T22:48:32.958Z,68.10
2023-04-12T22:51:02.873Z,68.90
2023-04-12T22:53:33.236Z,69.10
2023-04-12T22:56:00.264Z,69.20
2023-04-12T22:58:27.783Z,69.40
2023-04-12T23:00:57.071Z,69.90
2023-04-12T23:03:24.181Z,70.40
2023-04-12T23:05:55.760Z,70.00
2023-04-12T23:08:23.217Z,70.50
2023-04-12T23:10:50.125Z,70.70
2023-04-12T23:13:17.499Z,70.90
2023-04-12T23:15:44.574Z,71.40
2023-04-12T23:18:11.523Z,71.50
2023-04-12T23:20:39.120Z,71.40
2023-04-12T23:23:06.292Z,72.40
2023-04-12T23:25:45.425Z,71.50
2023-04-12T23:28:14.402Z,71.60
2023-04-12T23:30:51.711Z,71.70
2023-04-12T23:33:20.380Z,71.00
2023-04-12T23:35:56.139Z,71.40
2023-04-12T23:38:26.043Z,71.80
2023-04-12T23:40:56.332Z,71.70
2023-04-12T23:43:25.346Z,71.50
2023-04-12T23:45:52.781Z,71.60
2023-04-12T23:48:20.317Z,72.10
2023-04-12T23:50:48.218Z,72.10
2023-04-12T23:53:16.806Z,72.30
2023-04-12T23:55:47.606Z,71.40
2023-04-12T23:58:15.131Z,71.60
